createdAt,value
2018-02-23T00:01:48.403Z,10.60
2018-02-23T00:04:15.964Z,6.75
2018-02-23T00:06:43.485Z,7.07
2018-02-23T00:09:11.030Z,8.13
2018-02-23T00:11:38.585Z,7.00
2018-02-23T00:14:06.974Z,5.90
2018-02-23T00:16:34.634Z,6.22
2018-02-23T00:19:02.187Z,7.47
2018-02-23T00:21:29.738Z,6.90
2018-02-23T00:23:57.270Z,5.83
2018-02-23T00:26:24.829Z,8.40
2018-02-23T00:28:52.352Z,8.25
2018-02-23T00:31:19.998Z,8.88
2018-02-23T00:33:47.500Z,4.90
2018-02-23T00:36:15.102Z,7.20
2018-02-23T00:38:42.624Z,7.95
2018-02-23T00:41:10.159Z,5.13
2018-02-23T00:43:37.700Z,7.67
2018-02-23T00:46:05.259Z,7.37
2018-02-23T00:48:32.792Z,6.32
2018-02-23T00:51:00.302Z,8.30
2018-02-23T00:53:27.832Z,7.47
2018-02-23T00:55:55.405Z,6.60
2018-02-23T00:58:22.943Z,6.22
2018-02-23T01:00:50.500Z,7.87
2018-02-23T01:03:18.037Z,8.90
2018-02-23T01:05:45.594Z,10.63
2018-02-23T01:08:13.126Z,8.18
2018-02-23T01:10:40.656Z,7.40
2018-02-23T01:13:08.224Z,5.87
2018-02-23T01:15:35.765Z,6.43
2018-02-23T01:18:03.326Z,6.60
2018-02-23T01:20:30.853Z,8.37
2018-02-23T01:22:58.354Z,6.70
2018-02-23T01:25:25.874Z,7.57
2018-02-23T01:27:53.426Z,5.07
2018-02-23T01:30:21.030Z,9.20
2018-02-23T01:32:48.588Z,6.30
2018-02-23T01:35:16.248Z,7.75
2018-02-23T01:37:43.764Z,9.63
2018-02-23T01:40:11.343Z,7.75
2018-02-23T01:42:39.047Z,6.10
2018-02-23T01:45:06.571Z,6.25
2018-02-23T01:47:34.098Z,5.68
2018-02-23T01:50:01.627Z,8.07
2018-02-23T01:52:29.195Z,7.95
2018-02-23T01:54:56.776Z,8.33
2018-02-23T01:57:24.325Z,7.47
2018-02-23T01:59:51.949Z,11.48
2018-02-23T02:02:20.311Z,6.90
2018-02-23T02:04:47.832Z,9.17
2018-02-23T02:07:15.370Z,8.03
2018-02-23T02:09:42.889Z,6.50
2018-02-23T02:12:10.439Z,5.30
2018-02-23T02:14:37.956Z,5.43
2018-02-23T02:17:05.473Z,8.00
2018-02-23T02:19:33.002Z,6.53
2018-02-23T02:22:00.526Z,5.77
2018-02-23T02:24:28.036Z,5.80
2018-02-23T02:26:55.819Z,5.50
2018-02-23T02:29:23.391Z,6.70
2018-02-23T02:31:50.982Z,7.60
2018-02-23T02:34:18.505Z,5.40
2018-02-23T02:36:46.077Z,6.22
2018-02-23T02:39:13.602Z,7.33
2018-02-23T02:41:41.181Z,6.47
2018-02-23T02:44:08.740Z,6.80
2018-02-23T02:46:36.246Z,5.10
2018-02-23T02:49:03.757Z,9.53
2018-02-23T02:51:31.276Z,7.13
2018-02-23T02:53:58.824Z,6.83
2018-02-23T02:56:26.364Z,9.27
2018-02-23T02:58:53.899Z,7.40
2018-02-23T03:01:21.458Z,9.67
2018-02-23T03:03:48.966Z,7.43
2018-02-23T03:06:16.480Z,9.00
2018-02-23T03:08:44.000Z,5.53
2018-02-23T03:11:11.522Z,5.70
2018-02-23T03:13:39.043Z,5.57
2018-02-23T03:16:06.553Z,5.60
2018-02-23T03:18:34.053Z,6.27
2018-02-23T03:21:01.557Z,6.97
2018-02-23T03:23:29.072Z,8.13
2018-02-23T03:25:56.592Z,6.83
2018-02-23T03:28:24.093Z,6.03
2018-02-23T03:30:51.643Z,4.90
2018-02-23T03:33:19.181Z,5.77
2018-02-23T03:35:46.696Z,7.63
2018-02-23T03:38:14.215Z,7.07
2018-02-23T03:40:41.720Z,6.53
2018-02-23T03:43:09.251Z,6.57
2018-02-23T03:45:36.756Z,6.30
2018-02-23T03:48:04.283Z,5.50
2018-02-23T03:50:31.787Z,7.30
2018-02-23T03:52:59.309Z,7.93
2018-02-23T03:55:26.980Z,6.07
2018-02-23T03:57:54.501Z,5.80
2018-02-23T04:00:22.132Z,6.17
2018-02-23T04:02:49.645Z,7.50
2018-02-23T04:05:17.235Z,6.00
2018-02-23T04:07:44.747Z,8.40
2018-02-23T04:10:12.335Z,6.23
2018-02-23T04:12:39.873Z,8.27
2018-02-23T04:15:07.395Z,6.60
2018-02-23T04:17:34.913Z,5.77
2018-02-23T04:20:02.431Z,8.43
2018-02-23T04:22:29.944Z,8.17
2018-02-23T04:24:57.475Z,8.57
2018-02-23T04:27:24.988Z,8.77
2018-02-23T04:29:52.530Z,6.70
2018-02-23T04:32:20.050Z,7.40
2018-02-23T04:34:47.621Z,8.10
2018-02-23T04:37:15.163Z,8.00
2018-02-23T04:39:42.692Z,9.57
2018-02-23T04:42:10.191Z,8.97
2018-02-23T04:44:37.702Z,6.93
2018-02-23T04:47:05.395Z,6.73
2018-02-23T04:49:32.952Z,8.20
2018-02-23T04:52:00.458Z,7.30
2018-02-23T04:54:27.971Z,5.87
2018-02-23T04:56:55.473Z,8.50
2018-02-23T04:59:23.012Z,9.53
2018-02-23T05:01:50.546Z,5.90
2018-02-23T05:04:18.074Z,6.23
2018-02-23T05:06:45.602Z,7.13
2018-02-23T05:09:13.122Z,6.30
2018-02-23T05:11:40.701Z,8.50
2018-02-23T05:14:08.257Z,8.33
2018-02-23T05:16:35.775Z,8.50
2018-02-23T05:19:03.339Z,9.93
2018-02-23T05:21:30.885Z,8.97
2018-02-23T05:23:58.400Z,9.37
2018-02-23T05:26:25.934Z,8.57
2018-02-23T05:28:53.441Z,9.03
2018-02-23T05:31:21.068Z,12.30
2018-02-23T05:33:48.646Z,13.23
2018-02-23T05:36:16.190Z,8.40
2018-02-23T05:38:43.685Z,10.83
2018-02-23T05:41:11.190Z,9.73
2018-02-23T05:43:38.765Z,12.60
2018-02-23T05:46:06.332Z,12.63
2018-02-23T05:48:33.870Z,10.20
2018-02-23T05:51:01.387Z,10.03
2018-02-23T05:53:28.982Z,8.83
2018-02-23T05:55:56.528Z,9.00
2018-02-23T05:58:24.095Z,9.70
2018-02-23T06:00:51.653Z,13.20
2018-02-23T06:03:19.202Z,11.23
2018-02-23T06:05:46.763Z,11.97
2018-02-23T06:08:14.275Z,13.20
2018-02-23T06:10:41.843Z,9.70
2018-02-23T06:13:09.601Z,8.23
2018-02-23T06:15:42.914Z,13.30
2018-02-23T06:18:10.480Z,12.80
2018-02-23T06:20:38.109Z,11.60
2018-02-23T06:23:05.636Z,15.30
2018-02-23T06:25:33.181Z,10.40
2018-02-23T06:28:00.847Z,11.30
2018-02-23T06:30:28.385Z,13.30
2018-02-23T06:32:55.929Z,22.13
2018-02-23T06:35:23.567Z,15.40
2018-02-23T06:37:51.125Z,16.80
2018-02-23T06:40:18.649Z,12.07
2018-02-23T06:42:46.266Z,12.30
2018-02-23T06:45:13.798Z,13.83
2018-02-23T06:47:41.304Z,9.63
2018-02-23T06:50:08.814Z,11.23
2018-02-23T06:52:36.377Z,10.67
2018-02-23T06:55:04.049Z,12.33
2018-02-23T06:57:31.690Z,12.37
2018-02-23T06:59:59.241Z,12.77
2018-02-23T07:02:26.768Z,15.00
2018-02-23T07:04:54.271Z,9.60
2018-02-23T07:07:21.809Z,14.40
2018-02-23T07:09:49.345Z,11.27
2018-02-23T07:12:16.896Z,10.60
2018-02-23T07:14:44.503Z,11.23
2018-02-23T07:17:12.049Z,15.20
2018-02-23T07:19:39.706Z,14.03
2018-02-23T07:22:07.308Z,10.40
2018-02-23T07:24:34.834Z,12.20
2018-02-23T07:27:02.344Z,10.00
2018-02-23T07:29:29.862Z,9.67
2018-02-23T07:31:57.409Z,9.57
2018-02-23T07:34:24.947Z,8.57
2018-02-23T07:36:52.471Z,10.13
2018-02-23T07:39:19.978Z,12.17
2018-02-23T07:41:47.481Z,8.73
2018-02-23T07:44:15.034Z,14.17
2018-02-23T07:46:42.561Z,10.60
2018-02-23T07:49:10.100Z,10.80
2018-02-23T07:51:37.617Z,11.97
2018-02-23T07:54:05.560Z,8.73
2018-02-23T07:56:33.220Z,8.60
2018-02-23T07:59:00.734Z,12.20
2018-02-23T08:01:28.279Z,10.00
2018-02-23T08:03:55.781Z,12.67
2018-02-23T08:06:23.293Z,17.27
2018-02-23T08:08:50.814Z,18.27
2018-02-23T08:11:18.342Z,11.00
2018-02-23T08:13:45.877Z,12.90
2018-02-23T08:16:13.419Z,10.70
2018-02-23T08:18:40.952Z,11.40
2018-02-23T08:21:08.486Z,8.70
2018-02-23T08:23:36.007Z,13.30
2018-02-23T08:26:03.541Z,10.00
2018-02-23T08:28:31.062Z,11.20
2018-02-23T08:30:58.607Z,8.87
2018-02-23T08:33:26.200Z,5.83
2018-02-23T08:35:53.718Z,8.87
2018-02-23T08:38:21.250Z,6.37
2018-02-23T08:40:48.757Z,6.17
2018-02-23T08:43:16.301Z,9.63
2018-02-23T08:45:43.824Z,9.17
2018-02-23T08:48:11.370Z,11.10
2018-02-23T08:50:38.913Z,11.33
2018-02-23T08:53:06.455Z,9.97
2018-02-23T08:55:34.044Z,7.40
2018-02-23T08:58:01.561Z,12.80
2018-02-23T09:03:31.459Z,9.10
2018-02-23T09:05:59.044Z,5.17
2018-02-23T09:08:27.605Z,11.70
2018-02-23T09:10:55.134Z,10.70
2018-02-23T09:13:22.650Z,8.73
2018-02-23T09:15:50.199Z,9.83
2018-02-23T09:18:18.601Z,9.13
2018-02-23T09:20:46.115Z,6.37
2018-02-23T09:23:13.654Z,7.77
2018-02-23T09:25:41.173Z,4.93
2018-02-23T09:28:08.669Z,7.90
2018-02-23T09:30:36.203Z,5.43
2018-02-23T09:33:03.870Z,10.43
2018-02-23T09:35:31.434Z,10.73
2018-02-23T09:37:58.951Z,9.23
2018-02-23T09:40:26.468Z,6.10
2018-02-23T09:42:54.062Z,7.80
2018-02-23T09:45:21.668Z,6.90
2018-02-23T09:47:49.209Z,7.93
2018-02-23T09:50:16.868Z,6.90
2018-02-23T09:52:44.452Z,6.90
2018-02-23T09:55:11.981Z,7.07
2018-02-23T09:57:39.531Z,7.47
2018-02-23T10:00:07.462Z,7.07
2018-02-23T10:02:34.992Z,8.87
2018-02-23T10:05:02.568Z,12.10
2018-02-23T10:07:30.150Z,8.03
2018-02-23T10:09:57.726Z,9.43
2018-02-23T10:12:25.271Z,5.80
2018-02-23T10:14:52.851Z,9.27
2018-02-23T10:17:20.415Z,8.40
2018-02-23T10:19:47.997Z,10.77
2018-02-23T10:22:15.541Z,9.40
2018-02-23T10:24:43.077Z,9.47
2018-02-23T10:27:10.609Z,13.93
2018-02-23T10:29:38.144Z,7.40
2018-02-23T10:32:05.705Z,8.60
2018-02-23T10:34:33.221Z,9.97
2018-02-23T10:37:00.740Z,4.93
2018-02-23T10:39:28.494Z,5.90
2018-02-23T10:41:56.006Z,8.47
2018-02-23T10:44:23.534Z,5.50
2018-02-23T10:46:51.047Z,7.30
2018-02-23T10:49:18.670Z,6.87
2018-02-23T10:51:46.349Z,8.20
2018-02-23T10:54:13.849Z,11.37
2018-02-23T10:56:41.404Z,7.80
2018-02-23T10:59:08.936Z,6.40
2018-02-23T11:01:36.483Z,9.63
2018-02-23T11:04:04.031Z,11.63
2018-02-23T11:06:31.569Z,7.43
2018-02-23T11:08:59.543Z,11.47
2018-02-23T11:11:27.053Z,9.20
2018-02-23T11:13:54.727Z,7.80
2018-02-23T11:16:22.255Z,8.53
2018-02-23T11:18:49.784Z,10.10
2018-02-23T11:21:17.337Z,8.27
2018-02-23T11:23:44.858Z,7.43
2018-02-23T11:26:12.408Z,7.80
2018-02-23T11:28:39.923Z,11.30
2018-02-23T11:31:07.461Z,6.13
2018-02-23T11:33:34.984Z,7.70
2018-02-23T11:36:02.599Z,9.60
2018-02-23T11:38:30.168Z,12.13
2018-02-23T11:40:57.673Z,8.60
2018-02-23T11:43:25.203Z,9.07
2018-02-23T11:45:52.811Z,16.07
2018-02-23T11:48:20.336Z,10.03
2018-02-23T11:50:47.984Z,12.03
2018-02-23T11:53:15.569Z,8.07
2018-02-23T11:55:43.124Z,11.00
2018-02-23T11:58:10.649Z,11.33
2018-02-23T12:00:38.221Z,8.50
2018-02-23T12:03:05.748Z,12.50
2018-02-23T12:05:33.249Z,14.37
2018-02-23T12:08:00.790Z,9.60
2018-02-23T12:10:28.310Z,7.67
2018-02-23T12:12:55.844Z,9.20
2018-02-23T12:15:23.359Z,13.63
2018-02-23T12:17:50.950Z,8.10
2018-02-23T12:20:18.463Z,8.63
2018-02-23T12:22:46.246Z,12.53
2018-02-23T12:25:13.843Z,9.27
2018-02-23T12:27:41.960Z,10.63
2018-02-23T12:30:09.561Z,12.67
2018-02-23T12:32:37.121Z,10.60
2018-02-23T12:35:04.640Z,8.20
2018-02-23T12:37:32.179Z,17.87
2018-02-23T12:39:59.712Z,8.57
2018-02-23T12:42:27.861Z,14.27
2018-02-23T12:44:55.383Z,11.50
2018-02-23T12:47:22.903Z,9.30
2018-02-23T12:49:50.410Z,10.20
2018-02-23T12:52:18.152Z,10.07
2018-02-23T12:54:45.702Z,7.53
2018-02-23T12:57:13.245Z,13.40
2018-02-23T12:59:40.784Z,12.73
2018-02-23T13:02:08.339Z,29.40
2018-02-23T13:04:35.846Z,10.80
2018-02-23T13:07:03.392Z,11.33
2018-02-23T13:09:30.959Z,12.87
2018-02-23T13:11:58.674Z,9.20
2018-02-23T13:14:31.822Z,11.73
2018-02-23T13:16:59.338Z,17.43
2018-02-23T13:19:26.866Z,16.77
2018-02-23T13:21:54.396Z,11.90
2018-02-23T13:24:21.926Z,11.43
2018-02-23T13:26:49.478Z,9.50
2018-02-23T13:29:17.013Z,13.37
2018-02-23T13:31:44.863Z,13.23
2018-02-23T13:34:12.620Z,14.80
2018-02-23T13:36:40.563Z,10.70
2018-02-23T13:39:08.910Z,13.03
2018-02-23T13:41:41.357Z,13.87
2018-02-23T13:44:09.079Z,17.80
2018-02-23T13:46:36.645Z,15.17
2018-02-23T13:49:04.221Z,18.80
2018-02-23T13:51:31.740Z,14.13
2018-02-23T13:54:04.882Z,12.03
2018-02-23T13:56:32.485Z,15.20
2018-02-23T13:59:00.736Z,16.33
2018-02-23T14:01:28.308Z,14.03
2018-02-23T14:03:55.895Z,14.07
2018-02-23T14:06:29.232Z,12.63
2018-02-23T14:08:56.912Z,12.03
2018-02-23T14:11:24.438Z,11.83
2018-02-23T14:13:51.969Z,14.53
2018-02-23T14:16:20.420Z,12.20
2018-02-23T14:18:47.973Z,14.30
2018-02-23T14:21:15.501Z,11.57
2018-02-23T14:23:43.035Z,20.50
2018-02-23T14:26:10.561Z,17.00
2018-02-23T14:28:38.200Z,14.40
2018-02-23T14:31:05.747Z,14.23
2018-02-23T14:33:33.260Z,10.03
2018-02-23T14:36:00.776Z,13.73
2018-02-23T14:38:28.340Z,14.63
2018-02-23T14:40:56.009Z,15.00
2018-02-23T14:43:24.230Z,15.23
2018-02-23T14:45:51.806Z,16.17
2018-02-23T14:48:31.070Z,13.40
2018-02-23T14:51:10.963Z,17.20
2018-02-23T14:53:38.492Z,17.00
2018-02-23T14:56:06.065Z,13.43
2018-02-23T14:58:33.590Z,19.40
2018-02-23T15:01:01.143Z,14.70
2018-02-23T15:03:28.683Z,19.20
2018-02-23T15:05:56.210Z,17.77
2018-02-23T15:08:23.735Z,17.47
2018-02-23T15:10:51.309Z,13.90
2018-02-23T15:13:18.841Z,21.60
2018-02-23T15:15:46.481Z,12.50
2018-02-23T15:18:14.079Z,16.97
2018-02-23T15:20:41.649Z,14.13
2018-02-23T15:23:09.212Z,21.80
2018-02-23T15:25:36.731Z,17.23
2018-02-23T15:28:04.268Z,21.37
2018-02-23T15:30:43.572Z,16.40
2018-02-23T15:33:11.110Z,27.63
2018-02-23T15:35:38.693Z,20.17
2018-02-23T15:38:06.266Z,24.17
2018-02-23T15:40:33.804Z,23.67
2018-02-23T15:43:01.331Z,31.83
2018-02-23T15:45:28.862Z,24.73
2018-02-23T15:51:14.547Z,30.80
2018-02-23T15:53:42.245Z,31.27
2018-02-23T15:56:09.801Z,28.50
2018-02-23T15:58:39.129Z,22.90
2018-02-23T16:01:06.670Z,23.43
2018-02-23T16:03:35.002Z,34.43
2018-02-23T16:06:02.630Z,34.43
2018-02-23T16:08:31.857Z,34.50
2018-02-23T16:10:59.372Z,30.57
2018-02-23T16:13:27.872Z,26.80
2018-02-23T16:15:55.404Z,30.17
2018-02-23T16:18:22.936Z,24.53
2018-02-23T16:20:50.502Z,25.77
2018-02-23T16:23:18.163Z,35.90
2018-02-23T16:25:45.687Z,26.90
2018-02-23T16:28:13.223Z,31.70
2018-02-23T16:30:40.808Z,31.97
2018-02-23T16:33:08.310Z,29.90
2018-02-23T16:35:35.866Z,34.90
2018-02-23T16:38:03.359Z,30.53
2018-02-23T16:40:30.995Z,40.23
2018-02-23T16:42:58.660Z,35.70
2018-02-23T16:45:26.246Z,35.80
2018-02-23T16:47:53.762Z,30.60
2018-02-23T16:50:22.188Z,39.17
2018-02-23T16:52:50.633Z,41.03
2018-02-23T16:55:18.189Z,42.50
2018-02-23T16:57:46.517Z,37.93
2018-02-23T17:00:14.051Z,42.20
2018-02-23T17:02:41.562Z,39.60
2018-02-23T17:05:09.084Z,39.53
2018-02-23T17:07:36.637Z,32.27
2018-02-23T17:10:04.144Z,26.73
2018-02-23T17:12:31.652Z,33.33
2018-02-23T17:14:59.179Z,36.87
2018-02-23T17:17:26.691Z,32.03
2018-02-23T17:19:54.364Z,24.90
2018-02-23T17:22:21.893Z,23.00
2018-02-23T17:24:49.402Z,26.83
2018-02-23T17:27:16.929Z,24.33
2018-02-23T17:29:44.448Z,23.37
2018-02-23T17:32:12.044Z,27.37
2018-02-23T17:34:39.656Z,23.47
2018-02-23T17:37:07.231Z,23.80
2018-02-23T17:39:34.815Z,28.00
2018-02-23T17:42:02.351Z,27.83
2018-02-23T17:44:29.866Z,24.43
2018-02-23T17:46:57.401Z,27.57
2018-02-23T17:49:24.994Z,25.77
2018-02-23T17:51:52.553Z,30.30
2018-02-23T17:54:21.116Z,23.40
2018-02-23T17:56:48.665Z,22.63
2018-02-23T17:59:16.423Z,25.37
2018-02-23T18:01:44.017Z,26.67
2018-02-23T18:04:11.560Z,24.00
2018-02-23T18:06:39.144Z,23.53
2018-02-23T18:09:06.696Z,23.63
2018-02-23T18:11:34.224Z,26.53
2018-02-23T18:14:01.769Z,26.57
2018-02-23T18:16:29.390Z,26.97
2018-02-23T18:18:57.049Z,26.40
2018-02-23T18:21:24.550Z,27.13
2018-02-23T18:23:52.070Z,22.17
2018-02-23T18:26:19.582Z,19.90
2018-02-23T18:28:47.091Z,30.20
2018-02-23T18:31:14.660Z,24.97
2018-02-23T18:33:42.213Z,22.43
2018-02-23T18:36:09.748Z,19.70
2018-02-23T18:38:37.280Z,20.07
2018-02-23T18:41:04.807Z,20.87
2018-02-23T18:43:32.346Z,20.13
2018-02-23T18:45:59.915Z,21.20
2018-02-23T18:48:27.518Z,22.13
2018-02-23T18:50:55.067Z,24.90
2018-02-23T18:53:22.642Z,21.97
2018-02-23T18:55:50.172Z,19.33
2018-02-23T18:58:18.239Z,23.40
2018-02-23T19:00:45.769Z,25.27
2018-02-23T19:03:13.484Z,28.27
2018-02-23T19:05:40.997Z,22.27
2018-02-23T19:08:08.526Z,21.37
2018-02-23T19:10:36.186Z,18.75
2018-02-23T19:13:03.738Z,21.20
2018-02-23T19:15:31.498Z,21.30
2018-02-23T19:17:59.026Z,18.50
2018-02-23T19:20:26.556Z,21.43
2018-02-23T19:22:54.141Z,22.20
2018-02-23T19:25:22.671Z,24.47
2018-02-23T19:27:50.307Z,23.43
2018-02-23T19:30:17.900Z,18.90
2018-02-23T19:32:45.488Z,23.70
2018-02-23T19:35:13.625Z,21.20
2018-02-23T19:37:41.155Z,21.43
2018-02-23T19:40:09.015Z,22.30
2018-02-23T19:42:36.572Z,22.30
2018-02-23T19:45:04.117Z,21.57
2018-02-23T19:47:31.638Z,20.00
2018-02-23T19:49:59.200Z,21.50
2018-02-23T19:52:26.809Z,21.27
2018-02-23T19:54:54.384Z,23.77
2018-02-23T19:57:21.919Z,20.50
2018-02-23T19:59:49.517Z,24.47
2018-02-23T20:02:17.195Z,27.43
2018-02-23T20:04:44.872Z,27.10
2018-02-23T20:07:12.440Z,28.40
2018-02-23T20:09:39.966Z,29.07
2018-02-23T20:12:07.520Z,22.77
2018-02-23T20:14:35.052Z,25.17
2018-02-23T20:17:02.588Z,22.07
2018-02-23T20:19:30.292Z,22.43
2018-02-23T20:21:57.847Z,18.30
2018-02-23T20:24:25.402Z,24.43
2018-02-23T20:26:52.939Z,12.70
2018-02-23T20:29:20.455Z,19.17
2018-02-23T20:31:48.070Z,23.20
2018-02-23T20:34:15.626Z,23.00
2018-02-23T20:36:43.258Z,19.67
2018-02-23T20:39:11.748Z,19.70
2018-02-23T20:41:39.307Z,18.53
2018-02-23T20:44:07.115Z,26.00
2018-02-23T20:46:34.691Z,18.23
2018-02-23T20:49:02.303Z,16.73
2018-02-23T20:51:29.859Z,16.93
2018-02-23T20:53:57.524Z,17.60
2018-02-23T20:56:25.279Z,18.23
2018-02-23T20:58:52.817Z,17.03
2018-02-23T21:01:20.382Z,16.23
2018-02-23T21:03:47.901Z,16.37
2018-02-23T21:06:15.421Z,18.80
2018-02-23T21:08:42.956Z,14.07
2018-02-23T21:11:10.485Z,16.07
2018-02-23T21:13:38.060Z,19.10
2018-02-23T21:16:05.628Z,21.53
2018-02-23T21:18:33.162Z,18.73
2018-02-23T21:21:00.700Z,14.53
2018-02-23T21:23:28.218Z,18.30
2018-02-23T21:25:55.761Z,21.73
2018-02-23T21:28:23.283Z,20.70
2018-02-23T21:30:50.826Z,19.80
2018-02-23T21:33:18.350Z,18.93
2018-02-23T21:35:45.878Z,18.20
2018-02-23T21:38:13.438Z,16.90
2018-02-23T21:40:40.964Z,21.93
2018-02-23T21:43:08.495Z,19.70
2018-02-23T21:45:36.045Z,17.97
2018-02-23T21:48:03.594Z,15.70
2018-02-23T21:50:31.171Z,17.20
2018-02-23T21:52:58.747Z,23.80
2018-02-23T21:55:26.304Z,20.00
2018-02-23T21:57:53.913Z,21.53
2018-02-23T22:00:21.493Z,26.47
2018-02-23T22:02:49.079Z,17.40
2018-02-23T22:05:16.660Z,22.50
2018-02-23T22:07:44.262Z,18.90
2018-02-23T22:10:11.810Z,21.53
2018-02-23T22:12:39.410Z,19.00
2018-02-23T22:15:07.028Z,20.83
2018-02-23T22:17:34.560Z,15.07
2018-02-23T22:20:02.127Z,20.13
2018-02-23T22:22:29.710Z,19.20
2018-02-23T22:24:57.353Z,20.50
2018-02-23T22:27:24.912Z,16.50
2018-02-23T22:29:52.474Z,15.40
2018-02-23T22:32:20.010Z,18.20
2018-02-23T22:34:47.542Z,15.00
2018-02-23T22:37:15.106Z,16.43
2018-02-23T22:39:42.648Z,17.23
2018-02-23T22:42:10.178Z,15.20
2018-02-23T22:44:37.687Z,14.43
2018-02-23T22:47:05.197Z,13.67
2018-02-23T22:49:32.837Z,11.97
2018-02-23T22:52:00.391Z,15.70
2018-02-23T22:54:27.911Z,12.03
2018-02-23T22:56:55.424Z,14.30
2018-02-23T22:59:22.952Z,14.23
2018-02-23T23:01:50.497Z,13.07
2018-02-23T23:04:18.011Z,14.50
2018-02-23T23:06:45.512Z,15.40
2018-02-23T23:09:13.057Z,17.10
2018-02-23T23:11:40.579Z,16.10
2018-02-23T23:14:08.125Z,11.07
2018-02-23T23:16:35.642Z,12.63
2018-02-23T23:19:03.174Z,15.80
2018-02-23T23:21:30.685Z,10.90
2018-02-23T23:23:58.692Z,12.33
2018-02-23T23:26:26.307Z,11.10
2018-02-23T23:28:53.836Z,9.77
2018-02-23T23:31:21.546Z,11.50
2018-02-23T23:33:49.181Z,12.20
2018-02-23T23:36:16.709Z,9.03
2018-02-23T23:38:44.241Z,16.63
2018-02-23T23:41:11.745Z,12.63
2018-02-23T23:43:41.236Z,11.87
2018-02-23T23:46:08.745Z,9.77
2018-02-23T23:48:36.334Z,11.97
2018-02-23T23:51:03.959Z,13.43
2018-02-23T23:53:31.510Z,11.10
2018-02-23T23:55:59.082Z,10.80
2018-02-23T23:58:26.987Z,9.77
